Time;durP1;ratioP1;P1;durP2;ratioP2;P2;SDS_P1;SDS_P2;PMS_P1;PMS_P2;Temp;Humidity;BMP_temperature;BMP_pressure;BME280_temperature;BME280_humidity;BME280_pressure;Samples;Min_cycle;Max_cycle;Signal;HPM_P1;HPM_P2
2021/09/05 00:02:21;;;;;;;17.40;6.10;;;;;;;11.06;100.00;66793.63;5022348;28;20103;-68
2021/09/05 00:04:46;;;;;;;17.47;5.63;;;;;;;11.03;100.00;68936.94;5022043;28;20230;-68
2021/09/05 00:07:12;;;;;;;16.67;6.30;;;;;;;10.96;100.00;65461.38;5022054;28;20075;-68
2021/09/05 00:09:38;;;;;;;17.90;6.73;;;;;;;10.88;100.00;69292.13;5022240;28;20260;-69
2021/09/05 00:12:04;;;;;;;18.77;7.67;;;;;;;10.88;100.00;72944.31;5022430;28;20234;-69
2021/09/05 00:14:30;;;;;;;17.53;6.87;;;;;;;10.83;100.00;72606.44;5022010;28;20033;-69
2021/09/05 00:16:56;;;;;;;21.33;7.40;;;;;;;10.83;100.00;73602.34;5022348;28;20060;-69
2021/09/05 00:19:21;;;;;;;18.90;7.17;;;;;;;10.89;100.00;74274.63;5021805;28;20029;-69
2021/09/05 00:21:47;;;;;;;15.27;6.60;;;;;;;10.84;100.00;70282.88;5022259;28;20237;-69
2021/09/05 00:24:13;;;;;;;17.40;7.27;;;;;;;10.80;100.00;69282.44;5021790;28;20025;-69
2021/09/05 00:26:38;;;;;;;18.93;7.30;;;;;;;10.80;100.00;67292.81;5021965;28;20028;-69
2021/09/05 00:29:06;;;;;;;16.63;6.90;;;;;;;10.77;100.00;64590.44;5021644;28;20029;-69
2021/09/05 00:31:32;;;;;;;17.70;6.67;;;;;;;10.76;100.00;64635.91;5021141;28;20037;-69
2021/09/05 00:34:01;;;;;;;15.17;6.90;;;;;;;10.67;100.00;62587.47;5021470;28;20044;-69
2021/09/05 00:36:27;;;;;;;17.27;6.33;;;;;;;10.61;100.00;64326.47;5021521;28;20060;-69
2021/09/05 00:38:52;;;;;;;17.00;6.53;;;;;;;10.58;100.00;67266.88;5020551;28;20033;-69
2021/09/05 00:41:18;;;;;;;20.17;7.37;;;;;;;10.62;100.00;71583.88;5021871;28;20029;-69
2021/09/05 00:44:05;;;;;;;18.37;7.20;;;;;;;10.54;100.00;72238.31;5021776;28;20056;-69
2021/09/05 00:46:31;;;;;;;17.27;6.40;;;;;;;10.49;100.00;69909.34;5001945;28;20298;-69
2021/09/05 00:48:57;;;;;;;15.33;7.30;;;;;;;10.46;100.00;71564.47;5002432;28;20388;-69
2021/09/05 00:51:28;;;;;;;19.27;6.20;;;;;;;10.44;100.00;68908.41;5021249;28;20036;-69
2021/09/05 00:53:54;;;;;;;18.93;6.53;;;;;;;10.43;100.00;64925.59;5021384;28;20026;-69
2021/09/05 00:56:20;;;;;;;14.13;5.70;;;;;;;10.48;100.00;62489.53;5001815;28;20513;-69
2021/09/05 00:58:46;;;;;;;15.83;6.53;;;;;;;10.52;100.00;60033.09;5001410;28;20026;-69
2021/09/05 01:01:13;;;;;;;15.43;6.47;;;;;;;10.47;100.00;54389.56;5020695;28;20510;-68
2021/09/05 01:03:39;;;;;;;16.77;5.67;;;;;;;10.33;100.00;52937.38;5020431;28;20052;-68
2021/09/05 01:06:04;;;;;;;15.80;6.10;;;;;;;10.36;100.00;58729.44;5020937;28;20029;-68
2021/09/05 01:08:30;;;;;;;16.80;7.03;;;;;;;10.32;100.00;64918.22;5021352;28;20030;-68
2021/09/05 01:10:56;;;;;;;17.90;6.60;;;;;;;10.27;100.00;66217.00;5020855;28;20269;-68
2021/09/05 01:13:21;;;;;;;19.00;7.00;;;;;;;10.20;100.00;60815.44;5021096;28;20026;-68
2021/09/05 01:15:47;;;;;;;16.23;6.67;;;;;;;10.19;100.00;57027.50;5020789;28;20033;-68
2021/09/05 01:18:13;;;;;;;16.53;7.07;;;;;;;10.20;100.00;56313.31;5020788;28;20033;-68
2021/09/05 01:20:38;;;;;;;16.67;7.10;;;;;;;10.10;100.00;58589.97;5020198;28;20100;-68
2021/09/05 01:23:04;;;;;;;16.83;7.43;;;;;;;10.04;100.00;60059.78;5020303;28;20493;-67
2021/09/05 01:25:29;;;;;;;20.57;6.60;;;;;;;10.01;100.00;62092.25;5020081;28;20071;-68
2021/09/05 01:27:55;;;;;;;18.20;7.60;;;;;;;10.07;100.00;63029.06;5020528;28;20494;-68
2021/09/05 01:30:20;;;;;;;17.63;6.83;;;;;;;10.08;100.00;61391.50;5020128;28;20029;-68
2021/09/05 01:32:46;;;;;;;19.00;6.90;;;;;;;10.14;100.00;59417.63;5020435;28;20029;-67
2021/09/05 01:35:11;;;;;;;19.50;6.63;;;;;;;10.11;100.00;55582.69;5020246;28;20086;-68
2021/09/05 01:37:37;;;;;;;16.03;6.77;;;;;;;10.21;100.00;56007.31;5020190;28;20075;-67
2021/09/05 01:40:03;;;;;;;16.47;7.27;;;;;;;10.21;100.00;55612.66;5020137;28;20291;-68
2021/09/05 01:42:29;;;;;;;23.07;7.40;;;;;;;10.17;100.00;58044.81;5020255;28;20613;-68
2021/09/05 01:44:54;;;;;;;17.20;7.13;;;;;;;10.13;100.00;59305.03;5019807;28;20030;-68
2021/09/05 01:47:19;;;;;;;19.43;6.60;;;;;;;10.21;100.00;63157.75;5020411;28;20037;-68
2021/09/05 01:49:45;;;;;;;23.07;7.80;;;;;;;10.24;100.00;65240.19;5020049;28;20287;-68
2021/09/05 01:52:10;;;;;;;25.93;8.43;;;;;;;10.33;100.00;68894.53;5020215;28;20524;-68
2021/09/05 01:54:36;;;;;;;23.00;8.33;;;;;;;10.38;100.00;68238.16;5019584;28;20033;-68
2021/09/05 01:57:02;;;;;;;23.30;7.47;;;;;;;10.38;100.00;65587.41;5019743;28;20025;-68
2021/09/05 01:59:27;;;;;;;29.13;8.43;;;;;;;10.35;100.00;63597.38;5019795;28;20040;-68
2021/09/05 02:01:56;;;;;;;18.83;8.13;;;;;;;10.41;100.00;59608.13;5019320;28;20017;-68
2021/09/05 02:04:25;;;;;;;19.20;7.87;;;;;;;10.43;100.00;56793.06;5019871;28;20120;-68
2021/09/05 02:06:50;;;;;;;19.83;8.13;;;;;;;10.42;100.00;56701.72;5020077;28;20044;-68
2021/09/05 02:09:32;;;;;;;21.10;8.87;;;;;;;10.46;100.00;57531.28;5024581;28;20026;-68
2021/09/05 02:11:58;;;;;;;21.83;7.97;;;;;;;10.51;100.00;59448.13;5022458;28;20021;-69
2021/09/05 02:14:24;;;;;;;19.87;7.60;;;;;;;10.58;100.00;60253.41;5019964;28;20187;-70
2021/09/05 02:16:49;;;;;;;27.43;8.87;;;;;;;10.59;100.00;60626.13;5021371;28;20504;-68
2021/09/05 02:19:17;;;;;;;24.20;7.90;;;;;;;10.63;100.00;63296.41;5020485;28;20506;-68
2021/09/05 02:21:51;;;;;;;22.93;8.50;;;;;;;10.64;100.00;64622.28;5021111;28;20025;-69
2021/09/05 02:24:17;;;;;;;22.00;8.00;;;;;;;10.64;100.00;64291.03;5019880;28;20025;-69
2021/09/05 02:26:42;;;;;;;26.40;7.53;;;;;;;10.63;100.00;65615.03;5020348;28;20283;-68
2021/09/05 02:29:08;;;;;;;22.53;7.90;;;;;;;10.50;100.00;62952.03;5003293;28;20421;-69
2021/09/05 02:31:33;;;;;;;28.53;8.57;;;;;;;10.48;100.00;63280.84;5020378;28;20506;-68
2021/09/05 02:33:59;;;;;;;23.43;8.83;;;;;;;10.54;100.00;65937.16;5019210;28;20021;-69
2021/09/05 02:36:26;;;;;;;25.20;8.17;;;;;;;10.57;100.00;66272.00;5019652;28;20033;-69
2021/09/05 02:38:51;;;;;;;24.90;9.20;;;;;;;10.54;100.00;64943.31;5019278;28;20025;-69
2021/09/05 02:41:17;;;;;;;30.80;8.43;;;;;;;10.54;100.00;65274.56;4999852;28;20108;-69
2021/09/05 02:43:42;;;;;;;21.23;7.80;;;;;;;10.61;100.00;64950.13;4999547;28;20471;-69
2021/09/05 02:46:08;;;;;;;24.27;8.03;;;;;;;10.68;100.00;64295.56;5017797;28;20393;-69
2021/09/05 02:48:33;;;;;;;22.67;8.07;;;;;;;10.68;100.00;61207.59;5019099;28;20033;-69
2021/09/05 02:50:59;;;;;;;26.53;8.43;;;;;;;10.66;100.00;58646.28;5018832;28;20469;-69
2021/09/05 02:53:24;;;;;;;26.27;8.07;;;;;;;10.61;100.00;57220.63;5019499;28;20482;-69
2021/09/05 02:55:50;;;;;;;25.90;8.67;;;;;;;10.60;100.00;58480.47;5018925;28;20491;-67
2021/09/05 02:58:15;;;;;;;24.27;8.20;;;;;;;10.63;100.00;60545.06;5019198;28;20414;-67
2021/09/05 03:00:41;;;;;;;21.73;8.27;;;;;;;10.61;100.00;60261.22;5020146;28;20045;-67
2021/09/05 03:03:07;;;;;;;26.37;8.53;;;;;;;10.60;100.00;60645.81;5023562;28;20025;-67
2021/09/05 03:05:33;;;;;;;25.37;8.80;;;;;;;10.59;100.00;60195.03;5023347;28;20119;-68
2021/09/05 03:07:59;;;;;;;26.57;8.33;;;;;;;10.53;100.00;60194.34;5023306;28;20317;-66
2021/09/05 03:10:24;;;;;;;26.57;8.40;;;;;;;10.47;100.00;57542.63;5022568;28;20276;-69
2021/09/05 03:12:50;;;;;;;26.83;8.73;;;;;;;10.46;100.00;54718.31;5022681;28;20029;-69
2021/09/05 03:15:15;;;;;;;28.53;8.37;;;;;;;10.38;100.00;53202.00;5022260;28;20040;-69
2021/09/05 03:17:41;;;;;;;24.20;8.87;;;;;;;10.43;100.00;55313.91;5023006;28;20055;-67
2021/09/05 03:20:08;;;;;;;31.33;9.73;;;;;;;10.48;100.00;58122.56;5022178;28;20052;-67
2021/09/05 03:22:35;;;;;;;28.47;8.97;;;;;;;10.47;100.00;58199.00;5022535;28;20171;-67
2021/09/05 03:25:00;;;;;;;29.93;10.57;;;;;;;10.41;100.00;56715.69;5022294;28;20036;-67
2021/09/05 03:27:26;;;;;;;35.30;9.10;;;;;;;10.31;100.00;56130.28;5022186;28;20202;-67
2021/09/05 03:29:51;;;;;;;31.40;8.50;;;;;;;10.32;100.00;57093.78;5022184;28;20036;-67
2021/09/05 03:32:17;;;;;;;29.07;9.20;;;;;;;10.36;100.00;57686.84;5022479;28;20017;-67
2021/09/05 03:34:42;;;;;;;32.63;9.60;;;;;;;10.34;100.00;57689.47;5021774;28;20041;-67
2021/09/05 03:37:08;;;;;;;35.43;8.27;;;;;;;10.32;100.00;58581.22;5022435;28;20083;-67
2021/09/05 03:39:33;;;;;;;31.73;9.17;;;;;;;10.35;100.00;59410.19;5021928;28;20221;-67
2021/09/05 03:41:59;;;;;;;34.73;9.33;;;;;;;10.40;100.00;60435.81;5022452;28;20626;-67
2021/09/05 03:44:24;;;;;;;33.10;8.83;;;;;;;10.44;100.00;61290.84;5022171;28;20497;-67
2021/09/05 03:46:50;;;;;;;36.73;10.63;;;;;;;10.48;100.00;62618.81;5022377;28;20025;-67
2021/09/05 03:49:16;;;;;;;39.73;10.37;;;;;;;10.51;100.00;61510.34;5022131;28;20029;-67
2021/09/05 03:51:41;;;;;;;43.20;10.27;;;;;;;10.56;100.00;61634.72;5022307;28;20105;-67
2021/09/05 03:54:06;;;;;;;37.77;9.97;;;;;;;10.64;100.00;62304.28;5021874;28;20028;-67
2021/09/05 03:56:32;;;;;;;38.73;9.87;;;;;;;10.77;100.00;62649.63;5022130;28;20254;-67
2021/09/05 03:59:02;;;;;;;28.50;8.63;;;;;;;10.86;100.00;62991.31;5021871;28;20260;-67
2021/09/05 04:01:29;;;;;;;31.60;9.07;;;;;;;10.90;100.00;62994.63;5021868;28;20040;-67
2021/09/05 04:03:54;;;;;;;33.77;9.70;;;;;;;10.92;100.00;62660.44;5021358;28;20171;-67
2021/09/05 04:06:20;;;;;;;33.20;8.73;;;;;;;10.95;100.00;62007.06;5022054;28;20340;-67
2021/09/05 04:08:49;;;;;;;31.47;8.90;;;;;;;10.94;100.00;62005.97;5021984;28;20359;-67
2021/09/05 04:11:14;;;;;;;33.60;8.87;;;;;;;10.98;100.00;63004.03;5021703;28;20032;-67
2021/09/05 04:13:40;;;;;;;34.50;9.80;;;;;;;11.01;100.00;63338.66;5020259;28;20022;-67
2021/09/05 04:16:06;;;;;;;31.87;8.30;;;;;;;11.03;100.00;63340.91;5021212;28;20292;-67
2021/09/05 04:18:31;;;;;;;32.57;8.83;;;;;;;11.06;100.00;63675.63;5021555;28;20425;-67
2021/09/05 04:20:57;;;;;;;44.17;10.27;;;;;;;11.06;100.00;63675.06;5021190;28;20029;-66
2021/09/05 04:23:22;;;;;;;36.47;9.60;;;;;;;11.08;100.00;64340.72;5021434;28;20538;-66
2021/09/05 04:25:48;;;;;;;30.90;8.23;;;;;;;11.10;100.00;65337.56;5021427;28;20375;-66
2021/09/05 04:28:13;;;;;;;30.07;8.40;;;;;;;11.09;100.00;65999.63;5021509;28;20175;-68
2021/09/05 04:30:39;;;;;;;37.00;8.43;;;;;;;11.10;100.00;64674.47;5021245;28;20045;-68
2021/09/05 04:33:05;;;;;;;39.13;8.33;;;;;;;11.09;100.00;65336.44;5021474;28;20033;-66
2021/09/05 04:35:30;;;;;;;26.60;7.70;;;;;;;11.11;100.00;66001.94;5021111;28;20021;-66
2021/09/05 04:37:56;;;;;;;31.37;7.87;;;;;;;11.10;100.00;65006.00;5021670;28;20181;-66
2021/09/05 04:40:21;;;;;;;28.73;7.17;;;;;;;11.10;100.00;65669.16;5020783;28;20385;-66
2021/09/05 04:42:47;;;;;;;32.73;8.73;;;;;;;11.12;100.00;67329.97;5021285;28;20029;-66
2021/09/05 04:45:12;;;;;;;33.67;8.07;;;;;;;11.14;100.00;67000.56;5020824;28;20553;-66
2021/09/05 04:47:38;;;;;;;26.50;7.87;;;;;;;11.23;100.00;69001.97;5021109;28;20030;-66
2021/09/05 04:50:04;;;;;;;26.77;8.40;;;;;;;11.24;100.00;67011.13;5020977;28;20030;-66
2021/09/05 04:52:29;;;;;;;24.07;7.40;;;;;;;11.26;100.00;66682.25;5021081;28;20033;-66
2021/09/05 04:54:55;;;;;;;24.80;8.03;;;;;;;11.33;100.00;66358.03;5020933;28;20476;-65
2021/09/05 04:57:20;;;;;;;33.10;7.67;;;;;;;11.32;100.00;64366.72;5021301;28;20506;-65
2021/09/05 04:59:46;;;;;;;23.37;7.17;;;;;;;11.34;100.00;64037.38;5021052;28;20677;-67
2021/09/05 05:02:11;;;;;;;26.93;7.57;;;;;;;11.33;100.00;63042.25;5020957;28;20292;-68
2021/09/05 05:04:43;;;;;;;29.77;6.90;;;;;;;11.37;100.00;62714.63;5023668;28;20073;-69
2021/09/05 05:07:12;;;;;;;20.50;6.38;;;;;;;11.37;100.00;62714.63;5022416;28;20052;-69
2021/09/05 05:09:43;;;;;;;26.30;7.13;;;;;;;11.44;100.00;64711.94;5020680;28;20219;-68
2021/09/05 05:12:10;;;;;;;22.15;6.75;;;;;;;11.42;100.00;64709.69;5020959;28;20014;-67
2021/09/05 05:14:36;;;;;;;21.30;7.00;;;;;;;11.45;100.00;64049.75;5020718;28;20282;-68
2021/09/05 05:17:02;;;;;;;20.90;7.40;;;;;;;11.48;100.00;61400.91;5021600;28;20025;-67
2021/09/05 05:19:28;;;;;;;17.00;6.63;;;;;;;11.47;100.00;58371.56;5022660;28;20033;-68
2021/09/05 05:21:53;;;;;;;21.07;7.17;;;;;;;11.49;100.00;58135.66;5022118;28;20029;-68
2021/09/05 05:24:19;;;;;;;20.23;6.80;;;;;;;11.53;100.00;58364.81;5020088;28;20487;-69
2021/09/05 05:26:44;;;;;;;20.93;6.87;;;;;;;11.53;100.00;58393.78;5020589;28;20120;-68
2021/09/05 05:29:09;;;;;;;17.80;6.07;;;;;;;11.54;100.00;58337.91;5020638;28;20156;-69
2021/09/05 05:31:35;;;;;;;21.07;6.50;;;;;;;11.57;100.00;58459.47;5020371;28;20457;-69
2021/09/05 05:34:00;;;;;;;19.03;6.37;;;;;;;11.60;100.00;57803.38;5020167;28;20057;-69
2021/09/05 05:36:26;;;;;;;18.33;7.53;;;;;;;11.65;100.00;57981.81;5020257;28;20099;-69
2021/09/05 05:38:51;;;;;;;21.43;7.30;;;;;;;11.73;100.00;59791.34;5020039;28;20111;-69
2021/09/05 05:41:19;;;;;;;17.23;6.90;;;;;;;11.79;100.00;57974.41;5019937;28;20025;-69
2021/09/05 05:43:44;;;;;;;23.30;6.90;;;;;;;11.82;100.00;55556.13;5020185;28;20121;-69
2021/09/05 05:46:10;;;;;;;20.27;6.70;;;;;;;11.89;100.00;56090.66;5020077;28;20473;-69
2021/09/05 05:48:36;;;;;;;18.60;6.03;;;;;;;11.93;100.00;53204.22;5020301;28;20117;-69
2021/09/05 05:51:01;;;;;;;18.53;6.63;;;;;;;11.86;100.00;44999.19;5020564;28;20108;-67
2021/09/05 05:53:27;;;;;;;16.47;6.37;;;;;;;11.93;100.00;43741.66;5020388;28;20029;-69
2021/09/05 05:55:52;;;;;;;15.90;6.30;;;;;;;12.02;100.00;42524.47;5019605;28;20056;-69
2021/09/05 05:58:18;;;;;;;20.17;7.00;;;;;;;12.05;100.00;40313.47;5019910;28;20025;-69
2021/09/05 06:00:43;;;;;;;19.60;5.60;;;;;;;11.98;100.00;41691.81;5019568;28;20513;-69
2021/09/05 06:03:12;;;;;;;14.77;5.63;;;;;;;12.06;100.00;43066.16;5019716;28;20025;-69
2021/09/05 06:05:42;;;;;;;13.17;5.60;;;;;;;12.02;100.00;44955.75;5019422;28;20133;-69
2021/09/05 06:08:07;;;;;;;16.23;5.67;;;;;;;12.07;100.00;41510.50;5020009;28;20292;-69
2021/09/05 06:10:32;;;;;;;13.37;5.37;;;;;;;12.09;100.00;42563.31;5019421;28;20076;-69
2021/09/05 06:12:58;;;;;;;14.17;5.47;;;;;;;12.12;100.00;39234.78;5019643;28;20029;-69
2021/09/05 06:15:24;;;;;;;14.77;6.03;;;;;;;12.10;100.00;33149.44;5019322;28;20099;-69
2021/09/05 06:17:49;;;;;;;14.23;5.53;;;;;;;12.14;100.00;32005.78;5019605;28;20084;-69
2021/09/05 06:20:15;;;;;;;13.70;5.60;;;;;;;12.18;100.00;28911.06;5019342;28;20430;-69
2021/09/05 06:22:40;;;;;;;14.93;5.97;;;;;;;12.27;100.00;29673.38;5019498;28;20059;-69
2021/09/05 06:25:06;;;;;;;15.10;5.57;;;;;;;12.29;100.00;23239.78;5019315;28;20032;-69
2021/09/05 06:27:32;;;;;;;14.20;5.80;;;;;;;12.36;100.00;23685.94;5019573;28;20037;-69
2021/09/05 06:29:58;;;;;;;14.90;5.27;;;;;;;12.23;100.00;19295.09;5019435;28;20029;-68
2021/09/05 06:32:23;;;;;;;13.03;5.63;;;;;;;12.35;100.00;19903.72;5019683;28;20033;-69
2021/09/05 06:34:48;;;;;;;12.57;4.97;;;;;;;12.56;100.00;20055.13;5019043;28;20646;-69
2021/09/05 06:37:14;;;;;;;14.00;5.23;;;;;;;12.62;100.00;14906.53;5022984;28;20071;-69
2021/09/05 06:39:39;;;;;;;13.10;5.50;;;;;;;12.69;100.00;12589.00;5023469;28;20021;-69
2021/09/05 06:42:05;;;;;;;12.27;4.83;;;;;;;12.62;100.00;9329.44;5023388;28;20110;-69
2021/09/05 06:44:31;;;;;;;13.60;5.03;;;;;;;12.60;100.00;6822.31;5023462;28;20039;-69
2021/09/05 06:46:56;;;;;;;15.33;5.43;;;;;;;12.60;100.00;7005.97;5023388;28;20083;-69
2021/09/05 06:49:22;;;;;;;10.37;4.83;;;;;;;12.61;100.00;7016.34;5022862;28;20029;-69
2021/09/05 06:51:47;;;;;;;13.33;4.93;;;;;;;12.52;100.00;8602.25;5023609;28;20040;-69
2021/09/05 06:54:13;;;;;;;10.97;4.63;;;;;;;12.58;100.00;8549.84;5023202;28;20379;-69
2021/09/05 06:56:39;;;;;;;11.80;4.73;;;;;;;12.80;100.00;4883.59;5023240;28;20067;-69
2021/09/05 06:59:10;;;;;;;14.63;4.90;;;;;;;13.31;100.00;-1886.28;5023487;28;20024;-69
2021/09/05 07:01:36;;;;;;;12.27;5.17;;;;;;;13.47;100.00;-3857.88;5022940;28;20601;-69
2021/09/05 07:04:01;;;;;;;13.10;5.17;;;;;;;13.34;100.00;-423.28;5022472;28;20096;-69
2021/09/05 07:06:27;;;;;;;13.40;5.23;;;;;;;13.36;100.00;10.22;5023088;28;20316;-68
2021/09/05 07:08:52;;;;;;;13.63;5.47;;;;;;;13.33;100.00;134.97;5022895;28;20039;-68
2021/09/05 07:11:18;;;;;;;13.63;5.60;;;;;;;13.27;100.00;-339.53;5023050;28;20183;-68
2021/09/05 07:13:44;;;;;;;14.63;5.80;;;;;;;13.31;100.00;-8244.88;5023151;28;20225;-68
2021/09/05 07:16:09;;;;;;;11.20;4.80;;;;;;;13.56;100.00;-9882.09;5022555;28;20179;-68
2021/09/05 07:18:35;;;;;;;13.17;5.43;;;;;;;13.80;100.00;-15755.31;5022701;28;20044;-68
2021/09/05 07:21:00;;;;;;;10.63;4.33;;;;;;;13.82;100.00;-16992.06;5022350;28;20022;-68
2021/09/05 07:23:28;;;;;;;10.40;4.93;;;;;;;13.73;100.00;-16675.38;5023003;28;20029;-68
2021/09/05 07:25:55;;;;;;;11.60;5.33;;;;;;;13.68;100.00;-17686.75;5022573;28;20045;-68
2021/09/05 07:28:21;;;;;;;14.57;4.73;;;;;;;13.84;100.00;-16494.97;5022609;28;20112;-68
2021/09/05 07:30:46;;;;;;;11.23;4.90;;;;;;;13.88;100.00;-18820.47;5022570;28;20057;-68
2021/09/05 07:33:12;;;;;;;10.37;4.70;;;;;;;13.94;100.00;-19529.31;5023213;28;20108;-68
2021/09/05 07:35:37;;;;;;;12.27;4.80;;;;;;;14.55;100.00;-19545.03;5022058;28;20111;-69
2021/09/05 07:38:03;;;;;;;9.47;4.33;;;;;;;14.80;100.00;-19551.44;5022338;28;20034;-69
2021/09/05 07:40:28;;;;;;;10.77;4.70;;;;;;;14.75;100.00;-19550.00;5022495;28;20025;-68
2021/09/05 07:42:54;;;;;;;10.53;5.10;;;;;;;14.71;100.00;-19548.97;5022559;28;20033;-68
2021/09/05 07:45:19;;;;;;;11.50;4.63;;;;;;;14.63;100.00;-19547.13;5022387;28;20029;-68
2021/09/05 07:47:45;;;;;;;12.87;4.83;;;;;;;14.47;100.00;-19542.94;5022174;28;20406;-68
2021/09/05 07:50:11;;;;;;;10.67;4.93;;;;;;;14.63;100.00;-19547.00;5022065;28;20101;-68
2021/09/05 07:52:36;;;;;;;12.57;5.07;;;;;;;14.77;100.00;-19550.53;5022313;28;20032;-68
2021/09/05 07:55:03;;;;;;;14.17;5.10;;;;;;;14.92;100.00;-19554.59;5022011;28;20029;-68
2021/09/05 07:57:28;;;;;;;11.10;4.93;;;;;;;14.97;100.00;-19555.63;5022037;28;20356;-68
2021/09/05 07:59:54;;;;;;;9.03;4.13;;;;;;;14.90;100.00;-19553.94;5021834;28;20056;-68
2021/09/05 08:02:19;;;;;;;8.93;4.23;;;;;;;14.95;100.00;-19555.25;5022107;28;20408;-68
2021/09/05 08:04:44;;;;;;;10.03;4.50;;;;;;;15.00;100.00;-19556.56;5021180;28;20056;-69
2021/09/05 08:07:10;;;;;;;10.37;4.60;;;;;;;15.34;100.00;-19565.19;5022131;28;20387;-69
2021/09/05 08:09:36;;;;;;;9.93;4.43;;;;;;;15.77;100.00;-19576.31;5021724;28;20169;-69
2021/09/05 08:12:02;;;;;;;8.77;4.17;;;;;;;15.90;100.00;-19579.59;5021743;28;20049;-68
2021/09/05 08:14:28;;;;;;;8.70;4.03;;;;;;;16.08;100.00;-19584.28;5021488;28;20423;-68
2021/09/05 08:16:53;;;;;;;10.47;4.07;;;;;;;16.25;100.00;-19588.72;5021801;28;20285;-68
2021/09/05 08:19:19;;;;;;;9.47;3.90;;;;;;;16.66;100.00;-19599.19;5020968;28;20573;-68
2021/09/05 08:21:45;;;;;;;8.70;3.37;;;;;;;16.69;100.00;-19599.97;5021225;28;20021;-68
2021/09/05 08:24:10;;;;;;;8.73;4.13;;;;;;;17.01;100.00;-19608.06;5021469;28;20021;-68
2021/09/05 08:26:36;;;;;;;9.13;3.97;;;;;;;17.30;100.00;-19615.63;5021265;28;20052;-68
2021/09/05 08:29:01;;;;;;;9.43;3.73;;;;;;;17.33;100.00;-19616.28;5021434;28;20172;-68
2021/09/05 08:31:27;;;;;;;9.57;4.13;;;;;;;16.92;100.00;-19605.97;5021853;28;20051;-68
2021/09/05 08:33:52;;;;;;;8.83;3.90;;;;;;;16.64;100.00;-19598.78;5021263;28;20025;-69
2021/09/05 08:36:18;;;;;;;10.57;4.50;;;;;;;16.69;100.00;-19599.97;5002063;28;20529;-70
2021/09/05 08:38:43;;;;;;;8.93;3.67;;;;;;;18.46;100.00;-19645.38;5001347;28;20338;-71
2021/09/05 08:41:09;;;;;;;9.57;4.05;;;;;;;18.83;100.00;-19654.75;5020725;28;20083;-70
2021/09/05 08:43:37;;;;;;;8.48;3.67;;;;;;;18.29;100.00;-19641.09;5021404;28;20288;-70
2021/09/05 08:46:03;;;;;;;9.93;4.47;;;;;;;17.37;100.00;-19617.47;5020951;28;20099;-69
2021/09/05 08:48:29;;;;;;;8.45;4.20;;;;;;;17.68;100.00;-19625.44;5021254;28;20049;-69
2021/09/05 08:50:55;;;;;;;9.90;4.77;;;;;;;18.19;100.00;-19638.34;5021425;28;20103;-69
2021/09/05 08:53:21;;;;;;;8.25;3.58;;;;;;;18.87;100.00;-19655.81;5021110;28;20106;-70
2021/09/05 08:55:47;;;;;;;10.00;3.90;;;;;;;19.92;100.00;-19682.63;5020575;28;20045;-71
2021/09/05 08:58:14;;;;;;;8.30;3.45;;;;;;;20.44;100.00;-19696.16;5020429;28;20525;-70
2021/09/05 09:00:42;;;;;;;7.90;3.60;;;;;;;20.80;100.00;-19705.13;5020399;28;20083;-71
2021/09/05 09:03:08;;;;;;;9.85;3.70;;;;;;;22.38;100.00;-19745.47;5020516;28;20028;-72
2021/09/05 09:05:41;;;;;;;8.18;3.60;;;;;;;21.62;100.00;-19726.28;5020026;28;20171;-71
2021/09/05 09:08:12;;;;;;;7.20;3.08;;;;;;;21.55;100.00;-19724.47;5020845;28;20076;-71
2021/09/05 09:10:52;;;;;;;9.17;3.50;;;;;;;19.46;100.00;-19670.91;5020605;28;20026;-69
2021/09/05 09:13:43;;;;;;;9.68;4.00;;;;;;;18.62;100.00;-19649.53;5020626;28;20315;-69
2021/09/05 09:16:13;;;;;;;8.38;3.80;;;;;;;18.19;100.00;-19638.47;5017318;28;20037;-68
2021/09/05 09:18:43;;;;;;;9.07;4.28;;;;;;;18.28;100.00;-19640.69;5020647;28;20513;-68
2021/09/05 09:21:11;;;;;;;9.07;3.97;;;;;;;18.23;100.00;-19639.38;5019617;28;20021;-68
2021/09/05 09:23:38;;;;;;;9.02;4.15;;;;;;;18.55;100.00;-19647.72;5020578;28;20146;-70
2021/09/05 09:26:12;;;;;;;8.60;3.90;;;;;;;19.09;100.00;-19661.53;5020700;28;20406;-70
2021/09/05 09:28:56;;;;;;;9.57;3.83;;;;;;;18.82;100.00;-19654.63;5020514;28;20036;-69
2021/09/05 09:31:28;;;;;;;8.77;4.20;;;;;;;18.68;100.00;-19651.13;5020403;28;20494;-70
2021/09/05 09:33:56;;;;;;;9.73;4.32;;;;;;;18.57;100.00;-19648.25;5020902;28;20026;-70
2021/09/05 09:36:23;;;;;;;9.35;4.65;;;;;;;18.98;100.00;-19658.66;5020190;28;20121;-70
2021/09/05 09:39:00;;;;;;;10.10;3.83;;;;;;;20.16;100.00;-19689.00;5019980;28;20052;-71
2021/09/05 09:41:37;;;;;;;8.07;3.83;;;;;;;20.93;100.00;-19708.63;5020220;28;20045;-71
2021/09/05 09:44:06;;;;;;;10.18;3.97;;;;;;;20.29;100.00;-19692.13;5020221;28;20041;-70
2021/09/05 09:46:35;;;;;;;8.73;3.95;;;;;;;19.36;100.00;-19668.44;5020690;28;20052;-70
2021/09/05 09:49:04;;;;;;;9.82;4.07;;;;;;;18.52;100.00;-19646.94;5019855;28;20033;-69
2021/09/05 09:51:30;;;;;;;11.40;4.10;;;;;;;19.57;100.00;-19673.78;5019749;28;20260;-70
2021/09/05 09:53:57;;;;;;;7.57;3.78;;;;;;;21.23;100.00;-19716.16;5019697;28;20262;-70
2021/09/05 09:56:22;;;;;;;11.13;4.78;;;;;;;20.42;100.00;-19695.63;5019695;28;20422;-70
2021/09/05 09:58:50;;;;;;;10.73;4.47;;;;;;;19.92;100.00;-19682.75;5020053;28;20025;-68
2021/09/05 10:01:18;;;;;;;11.93;4.13;;;;;;;19.47;100.00;-19671.16;5019617;28;20061;-68
2021/09/05 10:03:48;;;;;;;8.73;3.88;;;;;;;18.99;100.00;-19658.94;5021751;28;20021;-68
2021/09/05 10:06:18;;;;;;;14.00;4.82;;;;;;;18.66;100.00;-19650.47;5019585;28;20426;-68
2021/09/05 10:08:45;;;;;;;13.73;4.40;;;;;;;18.42;100.00;-19644.34;5019638;28;20372;-68
2021/09/05 10:11:12;;;;;;;9.90;4.78;;;;;;;18.47;100.00;-19645.63;5019450;28;20235;-68
2021/09/05 10:13:43;;;;;;;12.05;4.85;;;;;;;18.88;100.00;-19656.19;5019681;28;20040;-67
2021/09/05 10:16:09;;;;;;;9.25;4.35;;;;;;;19.48;100.00;-19671.44;5019296;28;20386;-67
2021/09/05 10:18:40;;;;;;;11.35;4.50;;;;;;;19.82;100.00;-19680.28;5019464;28;20040;-67
2021/09/05 10:21:06;;;;;;;7.95;3.92;;;;;;;19.83;100.00;-19680.41;5019154;28;20310;-69
2021/09/05 10:23:36;;;;;;;9.70;4.50;;;;;;;19.84;100.00;-19680.81;5022831;28;20036;-68
2021/09/05 10:26:10;;;;;;;10.88;3.97;;;;;;;19.21;100.00;-19664.66;5024205;28;20025;-68
2021/09/05 10:28:39;;;;;;;9.80;4.03;;;;;;;19.06;100.00;-19660.63;5019737;28;20032;-68
2021/09/05 10:31:09;;;;;;;16.20;5.22;;;;;;;19.57;100.00;-19673.78;5019218;28;20486;-68
2021/09/05 10:33:37;;;;;;;10.93;4.55;;;;;;;20.04;100.00;-19685.75;5019280;28;20457;-69
2021/09/05 10:36:13;;;;;;;10.55;4.57;;;;;;;19.97;100.00;-19683.91;5018949;28;20113;-68
2021/09/05 10:38:41;;;;;;;12.30;5.07;;;;;;;19.66;100.00;-19676.13;5019285;28;20103;-68
2021/09/05 10:41:23;;;;;;;10.43;5.05;;;;;;;19.19;100.00;-19664.00;5019131;28;20191;-68
2021/09/05 10:43:55;;;;;;;9.80;3.83;;;;;;;19.72;100.00;-19677.53;5019206;28;20103;-68
2021/09/05 10:46:26;;;;;;;10.80;4.28;;;;;;;19.89;100.00;-19682.09;5019530;28;20101;-68
2021/09/05 10:49:00;;;;;;;10.18;4.60;;;;;;;19.56;100.00;-19673.50;5020096;28;20036;-68
2021/09/05 10:51:39;;;;;;;10.20;4.40;;;;;;;19.03;100.00;-19659.97;5020220;28;20510;-67
2021/09/05 10:54:10;;;;;;;10.43;4.30;;;;;;;19.33;100.00;-19667.66;5019180;28;20277;-67
2021/09/05 10:56:43;;;;;;;12.13;4.93;;;;;;;19.67;100.00;-19676.38;5019152;28;20418;-69
2021/09/05 10:59:22;;;;;;;11.45;4.78;;;;;;;20.42;100.00;-19695.63;5026597;28;20033;-68
2021/09/05 11:01:59;;;;;;;13.25;5.35;;;;;;;20.62;100.00;-19700.56;5022793;28;20099;-68
2021/09/05 11:04:46;;;;;;;10.98;4.65;;;;;;;20.17;100.00;-19689.13;5020324;28;20045;-67
2021/09/05 11:07:32;;;;;;;12.70;5.57;;;;;;;19.51;100.00;-19672.22;5019091;28;20108;-67
2021/09/05 11:09:58;;;;;;;12.00;4.60;;;;;;;19.78;100.00;-19679.25;5018888;28;20026;-67
2021/09/05 11:12:42;;;;;;;9.98;4.72;;;;;;;19.13;100.00;-19662.56;5019008;28;20104;-67
2021/09/05 11:15:13;;;;;;;9.90;4.00;;;;;;;18.67;100.00;-19650.84;5018960;28;20033;-67
2021/09/05 11:17:38;;;;;;;8.80;4.13;;;;;;;18.32;100.00;-19641.88;5019035;28;20382;-67